Time;durP1;ratioP1;P1;durP2;ratioP2;P2;SDS_P1;SDS_P2;PMS_P1;PMS_P2;Temp;Humidity;BMP_temperature;BMP_pressure;BME280_temperature;BME280_humidity;BME280_pressure;Samples;Min_cycle;Max_cycle;Signal;HPM_P1;HPM_P2
2021/08/17 00:00:07;;;;;;;1.92;1.70;;;11.00;99.90;;;;;;5053691;28;20056;-75
2021/08/17 00:02:33;;;;;;;5.25;1.92;;;11.00;99.90;;;;;;5053694;28;20036;-76
2021/08/17 00:04:58;;;;;;;2.72;2.05;;;11.00;99.90;;;;;;5053684;28;20025;-75
2021/08/17 00:07:26;;;;;;;5.70;1.80;;;11.00;99.90;;;;;;5053608;28;20090;-75
2021/08/17 00:09:52;;;;;;;2.72;1.85;;;11.00;99.90;;;;;;5053636;28;20025;-75
2021/08/17 00:12:17;;;;;;;3.42;1.50;;;10.90;99.90;;;;;;5053808;28;20025;-75
2021/08/17 00:14:43;;;;;;;2.85;2.00;;;10.90;99.90;;;;;;5053521;28;20151;-75
2021/08/17 00:17:10;;;;;;;2.97;1.92;;;10.90;99.90;;;;;;5053526;28;20036;-75
2021/08/17 00:19:40;;;;;;;3.75;2.00;;;10.80;99.90;;;;;;5053713;28;20029;-75
2021/08/17 00:22:09;;;;;;;5.10;1.67;;;10.70;99.90;;;;;;5053557;28;20029;-75
2021/08/17 00:24:36;;;;;;;2.40;1.35;;;10.80;99.90;;;;;;5053552;28;20029;-75
2021/08/17 00:27:02;;;;;;;3.78;1.75;;;10.70;99.90;;;;;;5053352;28;20052;-75
2021/08/17 00:29:28;;;;;;;3.00;1.63;;;10.70;99.90;;;;;;5053169;28;20040;-74
2021/08/17 00:31:53;;;;;;;2.60;1.58;;;10.70;99.90;;;;;;5053554;28;20032;-74
2021/08/17 00:34:19;;;;;;;2.45;1.65;;;10.70;99.90;;;;;;5053240;28;20489;-74
2021/08/17 00:36:46;;;;;;;3.22;1.83;;;10.70;99.90;;;;;;5053167;28;20033;-74
2021/08/17 00:39:12;;;;;;;2.97;1.55;;;10.70;99.90;;;;;;5053130;28;20078;-74
2021/08/17 00:41:39;;;;;;;2.05;1.50;;;10.60;99.90;;;;;;5052875;28;20024;-75
2021/08/17 00:44:15;;;;;;;4.03;1.58;;;10.70;99.90;;;;;;5052169;28;20060;-75
2021/08/17 00:46:41;;;;;;;4.55;1.92;;;10.60;99.90;;;;;;5052852;28;20036;-76
2021/08/17 00:49:07;;;;;;;1.90;1.33;;;10.60;99.90;;;;;;5053352;28;20518;-77
2021/08/17 00:51:33;;;;;;;2.58;1.50;;;10.50;99.90;;;;;;5053128;28;20064;-76
2021/08/17 00:53:58;;;;;;;1.80;1.40;;;10.50;99.90;;;;;;5052937;28;20044;-77
2021/08/17 00:56:24;;;;;;;3.28;1.60;;;10.50;99.90;;;;;;5052823;28;20401;-76
2021/08/17 00:58:50;;;;;;;4.30;1.30;;;10.50;99.90;;;;;;5053067;28;20033;-76
2021/08/17 01:01:15;;;;;;;2.22;1.40;;;10.50;99.90;;;;;;5052777;28;20385;-76
2021/08/17 01:03:41;;;;;;;1.95;1.25;;;10.40;99.90;;;;;;5052923;28;20025;-76
2021/08/17 01:06:07;;;;;;;1.40;1.17;;;10.40;99.90;;;;;;5052694;28;20058;-76
2021/08/17 01:08:34;;;;;;;2.92;1.40;;;10.40;99.90;;;;;;5052488;28;20561;-77
2021/08/17 01:11:00;;;;;;;2.58;1.83;;;10.40;99.90;;;;;;5052440;28;20107;-76
2021/08/17 01:13:28;;;;;;;4.30;1.50;;;10.40;99.90;;;;;;5052792;28;20107;-76
2021/08/17 01:15:54;;;;;;;2.33;1.40;;;10.40;99.90;;;;;;5052433;28;20078;-75
2021/08/17 01:47:33;;;;;;;1.48;1.02;;;10.10;99.90;;;;;;5052020;28;20396;-76
2021/08/17 01:50:04;;;;;;;1.63;1.30;;;10.10;99.90;;;;;;5052011;28;20027;-76
2021/08/17 01:52:32;;;;;;;2.45;1.20;;;10.00;99.90;;;;;;5051790;28;20064;-76
2021/08/17 01:54:57;;;;;;;2.53;1.20;;;10.10;99.90;;;;;;5051603;28;20028;-77
2021/08/17 01:57:23;;;;;;;4.32;1.50;;;10.00;99.90;;;;;;5051726;28;20041;-76
2021/08/17 01:59:50;;;;;;;2.88;1.10;;;10.10;99.90;;;;;;5052200;28;20464;-77
2021/08/17 02:02:16;;;;;;;1.92;1.00;;;10.10;99.90;;;;;;5051720;28;20039;-76
2021/08/17 02:04:42;;;;;;;1.38;1.20;;;10.00;99.90;;;;;;5051874;28;20116;-76
2021/08/17 02:07:07;;;;;;;1.25;0.98;;;10.00;99.90;;;;;;5051645;28;20059;-76
2021/08/17 02:09:33;;;;;;;2.67;1.10;;;10.00;99.90;;;;;;5051845;28;20029;-76
2021/08/17 02:11:59;;;;;;;1.42;1.20;;;10.00;99.90;;;;;;5052036;28;20430;-76
2021/08/17 02:14:25;;;;;;;1.60;1.10;;;10.00;99.90;;;;;;5051740;28;20059;-75
2021/08/17 02:16:51;;;;;;;1.63;1.20;;;10.10;99.90;;;;;;5051729;28;20115;-76
2021/08/17 02:19:17;;;;;;;1.48;0.98;;;10.00;99.90;;;;;;5051922;28;20104;-75
2021/08/17 02:21:43;;;;;;;3.22;1.27;;;10.00;99.90;;;;;;5051736;28;20032;-76
2021/08/17 02:24:09;;;;;;;1.23;1.10;;;10.00;99.90;;;;;;5051895;28;20025;-76
2021/08/17 02:26:35;;;;;;;1.85;0.90;;;10.00;99.90;;;;;;5051762;28;20024;-76
2021/08/17 02:29:01;;;;;;;2.67;1.20;;;10.00;99.90;;;;;;5051926;28;20586;-76
2021/08/17 02:31:26;;;;;;;1.10;1.00;;;10.00;99.90;;;;;;5051756;28;20396;-77
2021/08/17 02:33:52;;;;;;;1.42;0.90;;;10.00;99.90;;;;;;5051637;28;20040;-77
2021/08/17 02:36:18;;;;;;;4.30;1.40;;;10.00;99.90;;;;;;5051306;28;20120;-74
2021/08/17 02:38:43;;;;;;;1.40;1.08;;;10.00;99.90;;;;;;5051535;28;20029;-76
2021/08/17 02:41:09;;;;;;;1.25;1.08;;;9.90;99.90;;;;;;5051262;28;20169;-74
2021/08/17 02:43:35;;;;;;;1.38;1.08;;;9.90;99.90;;;;;;5051449;28;20032;-76
2021/08/17 02:46:01;;;;;;;0.85;0.77;;;9.90;99.90;;;;;;5051370;28;20036;-76
2021/08/17 02:48:27;;;;;;;6.45;1.10;;;9.90;99.90;;;;;;5051409;28;20025;-76
2021/08/17 02:50:52;;;;;;;1.58;1.10;;;9.80;99.90;;;;;;5051456;28;20071;-75
2021/08/17 02:53:18;;;;;;;3.70;0.90;;;9.90;99.90;;;;;;5051128;28;20053;-74
2021/08/17 02:55:44;;;;;;;1.63;0.90;;;9.80;99.90;;;;;;5051631;28;20052;-74
2021/08/17 02:58:10;;;;;;;1.10;0.88;;;9.80;99.90;;;;;;5051132;28;20512;-75
2021/08/17 03:00:37;;;;;;;2.00;1.05;;;9.80;99.90;;;;;;5051602;28;20033;-76
2021/08/17 03:03:03;;;;;;;3.70;1.10;;;9.80;99.90;;;;;;5051414;28;20033;-76
2021/08/17 03:05:29;;;;;;;2.17;1.10;;;9.80;99.90;;;;;;5051185;28;20107;-76
2021/08/17 03:08:00;;;;;;;1.30;0.93;;;9.90;99.90;;;;;;5055277;28;20159;-76
2021/08/17 03:10:27;;;;;;;1.42;0.95;;;9.90;99.90;;;;;;5054694;28;20100;-76
2021/08/17 03:12:53;;;;;;;0.95;0.90;;;9.90;99.90;;;;;;5054851;28;20103;-75
2021/08/17 03:15:19;;;;;;;2.67;0.98;;;9.90;99.90;;;;;;5054925;28;20064;-76
2021/08/17 03:17:46;;;;;;;1.50;0.90;;;9.90;99.90;;;;;;5054730;28;20039;-76
2021/08/17 03:20:13;;;;;;;3.47;0.95;;;9.90;99.90;;;;;;5054625;28;20056;-75
2021/08/17 03:22:39;;;;;;;1.10;1.00;;;9.90;99.90;;;;;;5054736;28;20112;-75
2021/08/17 03:25:08;;;;;;;1.42;0.88;;;9.90;99.90;;;;;;5054636;28;20436;-75
2021/08/17 03:27:34;;;;;;;0.77;0.77;;;9.90;99.90;;;;;;5054436;28;20035;-73
2021/08/17 03:30:00;;;;;;;2.78;1.15;;;9.90;99.90;;;;;;5054502;28;20029;-76
2021/08/17 03:32:26;;;;;;;1.13;0.82;;;9.90;99.90;;;;;;5054445;28;20108;-76
2021/08/17 03:34:53;;;;;;;1.70;0.70;;;10.00;99.90;;;;;;5054537;28;20067;-76
2021/08/17 03:37:19;;;;;;;0.80;0.63;;;10.00;99.90;;;;;;5054234;28;20036;-76
2021/08/17 03:39:46;;;;;;;1.20;0.90;;;10.10;99.90;;;;;;5054471;28;20187;-76
2021/08/17 03:42:12;;;;;;;1.00;0.75;;;10.10;99.90;;;;;;5054292;28;20463;-74
2021/08/17 03:44:38;;;;;;;3.42;0.90;;;10.00;99.90;;;;;;5054334;28;20108;-74
2021/08/17 03:47:04;;;;;;;2.33;1.17;;;10.10;99.90;;;;;;5054297;28;20165;-75
2021/08/17 03:49:29;;;;;;;2.72;0.90;;;10.10;99.90;;;;;;5054119;28;20583;-75
2021/08/17 03:51:55;;;;;;;2.35;1.00;;;10.10;99.90;;;;;;5054049;28;20021;-75
2021/08/17 03:54:21;;;;;;;1.90;1.10;;;10.20;99.90;;;;;;5054097;28;20457;-76
2021/08/17 03:56:46;;;;;;;2.78;1.88;;;10.10;99.90;;;;;;5053856;28;20059;-76
2021/08/17 03:59:12;;;;;;;1.67;0.85;;;10.10;99.90;;;;;;5053986;28;20083;-75
2021/08/17 04:01:38;;;;;;;1.02;0.90;;;10.10;99.90;;;;;;5053951;28;20511;-76
2021/08/17 04:04:03;;;;;;;1.02;0.93;;;10.10;99.90;;;;;;5053856;28;20032;-76
2021/08/17 04:06:29;;;;;;;0.88;0.75;;;10.20;99.90;;;;;;5053771;28;20017;-76
2021/08/17 04:08:55;;;;;;;2.45;0.70;;;10.20;99.90;;;;;;5053856;28;20036;-75
2021/08/17 04:11:20;;;;;;;0.75;0.60;;;10.20;99.90;;;;;;5053514;28;20066;-74
2021/08/17 04:13:46;;;;;;;0.88;0.80;;;10.20;99.90;;;;;;5053778;28;20078;-76
2021/08/17 04:16:12;;;;;;;0.70;0.70;;;10.30;99.90;;;;;;5053863;28;20029;-77
2021/08/17 04:18:38;;;;;;;1.38;0.80;;;10.30;99.90;;;;;;5053304;28;20514;-74
2021/08/17 04:21:03;;;;;;;1.40;1.08;;;10.40;99.90;;;;;;5053833;28;20021;-75
2021/08/17 04:23:29;;;;;;;2.45;0.77;;;10.50;99.90;;;;;;5053369;28;20618;-74
2021/08/17 04:25:55;;;;;;;0.70;0.70;;;10.60;99.90;;;;;;5053356;28;20116;-75
2021/08/17 04:28:20;;;;;;;0.95;0.60;;;10.60;99.90;;;;;;5053152;28;20067;-76
2021/08/17 04:30:46;;;;;;;0.77;0.77;;;10.60;99.90;;;;;;5053496;28;20075;-72
2021/08/17 04:33:12;;;;;;;11.15;1.25;;;10.60;99.90;;;;;;5053185;28;20380;-68
2021/08/17 04:35:38;;;;;;;0.60;0.60;;;11.20;99.90;;;;;;5053050;28;20028;-70
2021/08/17 04:38:03;;;;;;;1.17;0.60;;;12.80;99.90;;;;;;5053127;28;20128;-71
2021/08/17 04:40:29;;;;;;;0.73;0.73;;;13.00;99.90;;;;;;5052834;28;20053;-70
2021/08/17 04:42:55;;;;;;;1.60;0.80;;;12.60;99.90;;;;;;5060668;28;20026;-71
2021/08/17 04:45:21;;;;;;;2.38;0.60;;;12.30;99.90;;;;;;5064634;28;20021;-71
2021/08/17 04:47:49;;;;;;;4.00;0.63;;;12.10;99.90;;;;;;5070869;28;20028;-71
2021/08/17 04:50:15;;;;;;;4.20;0.75;;;11.90;99.90;;;;;;5063617;28;20027;-71
2021/08/17 04:52:41;;;;;;;0.75;0.75;;;11.80;99.90;;;;;;5061136;28;20373;-71
2021/08/17 04:55:08;;;;;;;2.90;0.85;;;11.70;99.90;;;;;;5062795;28;20380;-72
2021/08/17 04:57:46;;;;;;;0.80;0.60;;;11.50;99.90;;;;;;5062614;28;20032;-71
2021/08/17 05:00:12;;;;;;;1.17;0.60;;;11.40;99.90;;;;;;5062547;28;20017;-71
2021/08/17 05:02:38;;;;;;;0.88;0.70;;;11.40;99.90;;;;;;5060911;28;20024;-70
2021/08/17 05:05:04;;;;;;;3.20;0.73;;;11.50;99.90;;;;;;5061540;28;20073;-70
2021/08/17 05:07:30;;;;;;;3.10;0.60;;;11.60;99.90;;;;;;5063430;28;20029;-72
2021/08/17 05:09:55;;;;;;;1.95;0.77;;;11.80;99.90;;;;;;5060454;28;20029;-72
2021/08/17 05:12:21;;;;;;;0.80;0.60;;;11.80;99.90;;;;;;5067831;28;20586;-71
2021/08/17 05:14:47;;;;;;;3.15;0.57;;;11.90;99.90;;;;;;5071487;28;20024;-71
2021/08/17 05:17:12;;;;;;;1.10;0.60;;;12.00;99.90;;;;;;5072607;28;20029;-71
2021/08/17 05:19:38;;;;;;;0.77;0.60;;;12.10;99.90;;;;;;5072595;28;20024;-72
2021/08/17 05:22:04;;;;;;;2.15;0.73;;;12.50;99.90;;;;;;5070805;28;20028;-67
2021/08/17 05:24:29;;;;;;;0.70;0.70;;;12.60;99.90;;;;;;5060403;28;20033;-68
2021/08/17 05:26:55;;;;;;;0.63;0.60;;;12.80;99.90;;;;;;5052492;28;20032;-67
2021/08/17 05:29:21;;;;;;;0.63;0.63;;;13.10;99.90;;;;;;5051422;28;20074;-67
2021/08/17 05:31:46;;;;;;;1.60;0.70;;;13.50;99.90;;;;;;5052115;28;20031;-67
2021/08/17 05:34:12;;;;;;;1.00;0.57;;;13.90;99.90;;;;;;5052001;28;20039;-68
2021/08/17 05:36:38;;;;;;;2.35;0.60;;;14.30;99.90;;;;;;5051771;28;20083;-68
2021/08/17 05:39:03;;;;;;;3.88;0.55;;;14.50;99.90;;;;;;5052200;28;20100;-67
2021/08/17 05:41:29;;;;;;;1.85;0.60;;;14.80;99.90;;;;;;5050770;28;20029;-67
2021/08/17 05:43:55;;;;;;;0.60;0.60;;;15.10;99.90;;;;;;5052171;28;20423;-68
2021/08/17 05:46:21;;;;;;;1.40;0.80;;;15.50;99.90;;;;;;5052036;28;20063;-68
2021/08/17 05:48:46;;;;;;;0.55;0.55;;;15.70;99.90;;;;;;5051890;28;20477;-67
2021/08/17 05:51:12;;;;;;;1.23;0.60;;;16.00;99.90;;;;;;5052041;28;20025;-68
2021/08/17 05:53:38;;;;;;;1.08;0.55;;;16.20;99.90;;;;;;5051732;28;20547;-71
2021/08/17 05:56:04;;;;;;;0.57;0.55;;;16.50;99.90;;;;;;5052057;28;20052;-72
2021/08/17 05:58:30;;;;;;;1.33;0.57;;;16.70;99.90;;;;;;5052098;28;20039;-81
2021/08/17 06:00:56;;;;;;;1.25;0.70;;;16.90;99.90;;;;;;5058053;28;20063;-74
2021/08/17 06:03:21;;;;;;;1.42;0.70;;;17.10;99.90;;;;;;5061708;28;20056;-69
2021/08/17 06:05:47;;;;;;;0.40;0.40;;;17.20;99.10;;;;;;5052683;28;20021;-69
2021/08/17 06:08:13;;;;;;;1.48;0.73;;;17.40;98.70;;;;;;5051894;28;20384;-69
2021/08/17 06:10:39;;;;;;;1.10;0.80;;;17.50;98.40;;;;;;5051569;28;20487;-69
2021/08/17 06:13:04;;;;;;;1.98;0.55;;;17.80;98.60;;;;;;5051857;28;20515;-69
2021/08/17 06:15:30;;;;;;;3.85;0.68;;;17.90;96.90;;;;;;5051423;28;20033;-70
2021/08/17 06:18:01;;;;;;;0.77;0.50;;;18.00;96.30;;;;;;5055201;28;20028;-69
2021/08/17 06:20:28;;;;;;;0.60;0.60;;;18.10;96.80;;;;;;5070193;28;20052;-69
2021/08/17 06:22:54;;;;;;;0.75;0.68;;;18.10;95.70;;;;;;5071465;28;20166;-69
2021/08/17 06:25:20;;;;;;;0.80;0.57;;;18.30;95.20;;;;;;5071507;28;20522;-68
2021/08/17 06:27:45;;;;;;;0.70;0.60;;;18.50;94.40;;;;;;5071514;28;20024;-68
2021/08/17 06:30:11;;;;;;;0.73;0.50;;;18.50;94.10;;;;;;5071346;28;20021;-67
2021/08/17 06:32:37;;;;;;;1.27;0.60;;;18.60;94.00;;;;;;5071494;28;20388;-68
2021/08/17 06:35:03;;;;;;;0.50;0.50;;;18.70;92.90;;;;;;5071609;28;20113;-67
2021/08/17 06:37:30;;;;;;;1.25;0.50;;;18.70;91.90;;;;;;5071578;28;20032;-67
2021/08/17 06:39:56;;;;;;;1.70;0.68;;;18.60;92.00;;;;;;5071515;28;20108;-68
2021/08/17 06:42:21;;;;;;;5.15;0.90;;;18.30;92.10;;;;;;5074594;28;20048;-68
2021/08/17 06:44:47;;;;;;;3.13;1.05;;;18.50;93.70;;;;;;5075627;28;20417;-68
2021/08/17 06:47:13;;;;;;;2.55;0.77;;;18.40;92.20;;;;;;5075156;28;20025;-68
2021/08/17 06:49:38;;;;;;;4.60;0.75;;;18.40;93.30;;;;;;5075054;28;20097;-67
2021/08/17 06:52:04;;;;;;;1.17;0.68;;;18.50;92.30;;;;;;5074722;28;20047;-68
2021/08/17 06:54:30;;;;;;;1.23;0.68;;;18.30;91.10;;;;;;5074988;28;20043;-68
2021/08/17 06:56:56;;;;;;;1.95;0.63;;;18.10;91.80;;;;;;5074852;28;20468;-67
2021/08/17 06:59:21;;;;;;;0.85;0.60;;;18.20;91.60;;;;;;5074765;28;20029;-68
2021/08/17 07:01:47;;;;;;;1.63;0.60;;;18.00;91.20;;;;;;5075105;28;20388;-67
2021/08/17 07:04:13;;;;;;;0.57;0.50;;;17.90;91.50;;;;;;5075029;28;20028;-67
2021/08/17 07:06:39;;;;;;;1.05;0.60;;;17.60;91.60;;;;;;5074645;28;20146;-68
2021/08/17 07:09:05;;;;;;;0.98;0.60;;;17.60;92.10;;;;;;5074788;28;20029;-67
2021/08/17 07:11:30;;;;;;;1.20;0.70;;;17.60;92.20;;;;;;5074799;28;20062;-67
2021/08/17 07:13:56;;;;;;;2.10;0.60;;;17.50;92.80;;;;;;5074707;28;20628;-68
2021/08/17 07:16:22;;;;;;;0.90;0.80;;;17.60;92.90;;;;;;5074690;28;20032;-68
2021/08/17 07:18:48;;;;;;;1.02;0.50;;;17.60;92.40;;;;;;5072954;28;20424;-68
2021/08/17 07:21:14;;;;;;;1.05;0.70;;;17.60;92.80;;;;;;5057495;28;20476;-68
2021/08/17 07:23:40;;;;;;;1.85;0.80;;;17.80;93.10;;;;;;5068400;28;20100;-68
2021/08/17 07:26:05;;;;;;;2.00;1.13;;;17.90;92.80;;;;;;5054517;28;20104;-68
2021/08/17 07:28:31;;;;;;;1.00;0.73;;;17.80;92.50;;;;;;5054560;28;20687;-67
2021/08/17 07:30:57;;;;;;;0.68;0.50;;;17.80;93.00;;;;;;5058896;28;20048;-68
2021/08/17 07:33:23;;;;;;;1.23;0.70;;;17.70;92.40;;;;;;5054030;28;20566;-68
2021/08/17 07:35:49;;;;;;;5.47;1.10;;;17.50;92.80;;;;;;5063226;28;20021;-67
2021/08/17 07:38:15;;;;;;;1.50;0.73;;;17.60;93.40;;;;;;5063644;28;20036;-67
2021/08/17 07:40:41;;;;;;;0.93;0.70;;;17.50;93.20;;;;;;5071336;28;20044;-68
2021/08/17 07:43:07;;;;;;;2.03;1.00;;;17.40;92.80;;;;;;5074057;28;20463;-68
2021/08/17 07:45:33;;;;;;;1.60;0.70;;;17.20;92.90;;;;;;5074169;28;20032;-67
2021/08/17 07:47:59;;;;;;;1.65;0.80;;;17.10;93.40;;;;;;5069518;28;20047;-68
2021/08/17 07:50:25;;;;;;;1.33;0.65;;;17.20;93.80;;;;;;5062213;28;20017;-68
2021/08/17 07:52:51;;;;;;;1.77;0.90;;;17.20;93.80;;;;;;5053185;28;20514;-68
2021/08/17 07:55:17;;;;;;;1.00;0.70;;;17.20;93.80;;;;;;5059308;28;20108;-68
2021/08/17 07:57:43;;;;;;;1.20;0.65;;;17.10;93.30;;;;;;5053802;28;20156;-68
2021/08/17 08:00:11;;;;;;;1.23;0.77;;;17.00;93.70;;;;;;5054147;28;20025;-67
2021/08/17 08:02:37;;;;;;;1.85;0.90;;;17.00;94.10;;;;;;5053559;28;20029;-70
2021/08/17 08:05:04;;;;;;;1.23;0.80;;;17.10;93.90;;;;;;5053959;28;20475;-70
2021/08/17 08:07:30;;;;;;;4.93;0.90;;;17.20;94.30;;;;;;5053643;28;20025;-68
2021/08/17 08:09:56;;;;;;;1.33;0.93;;;17.20;94.30;;;;;;5056128;28;20388;-68
2021/08/17 08:12:22;;;;;;;1.40;0.90;;;17.10;94.00;;;;;;5072493;28;20032;-67
2021/08/17 08:14:48;;;;;;;3.80;0.90;;;17.10;94.10;;;;;;5063184;28;20017;-67
2021/08/17 08:17:14;;;;;;;1.40;0.88;;;17.00;94.00;;;;;;5053336;28;20045;-68
2021/08/17 08:19:39;;;;;;;2.20;1.05;;;17.00;94.30;;;;;;5063204;28;20065;-69
2021/08/17 08:22:06;;;;;;;6.45;1.30;;;17.10;94.50;;;;;;5070805;28;20025;-67
2021/08/17 08:24:33;;;;;;;6.63;1.40;;;16.90;94.60;;;;;;5064627;28;20025;-67
2021/08/17 08:26:59;;;;;;;1.65;0.90;;;16.80;95.00;;;;;;5065544;28;20033;-67
2021/08/17 08:29:25;;;;;;;3.47;1.30;;;16.80;95.30;;;;;;5071901;28;20021;-67
2021/08/17 08:31:50;;;;;;;4.10;1.38;;;16.80;95.60;;;;;;5073178;28;20032;-67
2021/08/17 08:34:16;;;;;;;1.17;0.90;;;16.80;95.30;;;;;;5073420;28;20024;-67
2021/08/17 08:36:42;;;;;;;3.97;1.40;;;16.60;95.70;;;;;;5072787;28;20076;-67
2021/08/17 08:39:08;;;;;;;4.25;1.40;;;16.60;96.10;;;;;;5073055;28;20075;-67
2021/08/17 08:41:34;;;;;;;6.00;1.33;;;16.60;96.70;;;;;;5073100;28;20074;-67
2021/08/17 08:44:00;;;;;;;1.80;1.10;;;16.70;97.00;;;;;;5072992;28;20070;-67
2021/08/17 08:46:29;;;;;;;3.53;1.80;;;16.50;97.00;;;;;;5073146;28;20074;-67
2021/08/17 08:48:55;;;;;;;2.00;0.90;;;16.50;97.30;;;;;;5073157;28;20029;-67
2021/08/17 08:51:22;;;;;;;7.30;1.00;;;16.50;97.20;;;;;;5060113;28;20029;-67
2021/08/17 08:53:49;;;;;;;1.80;1.10;;;16.60;97.70;;;;;;5052399;28;20049;-68
2021/08/17 08:56:15;;;;;;;5.45;1.55;;;16.60;97.20;;;;;;5052902;28;20025;-68
2021/08/17 08:58:42;;;;;;;1.95;1.20;;;16.50;97.70;;;;;;5052217;28;20049;-67
2021/08/17 09:01:18;;;;;;;2.03;1.10;;;16.50;97.60;;;;;;5052623;28;20090;-68
2021/08/17 09:03:46;;;;;;;1.88;1.20;;;16.40;97.70;;;;;;5051601;28;20083;-68
2021/08/17 09:06:19;;;;;;;1.45;1.00;;;16.40;98.80;;;;;;5052615;28;20104;-67
2021/08/17 09:08:45;;;;;;;2.60;1.50;;;16.30;98.90;;;;;;5061849;28;20096;-67
2021/08/17 09:11:22;;;;;;;1.40;1.30;;;16.30;99.60;;;;;;5072640;28;20021;-67
2021/08/17 09:13:48;;;;;;;2.95;1.10;;;16.30;99.80;;;;;;5070999;28;20035;-67
2021/08/17 09:16:25;;;;;;;2.47;1.10;;;16.30;99.70;;;;;;5072171;28;20055;-67
2021/08/17 09:18:52;;;;;;;1.70;0.93;;;16.40;99.90;;;;;;5070770;28;20040;-67
2021/08/17 09:21:32;;;;;;;1.35;1.20;;;16.40;99.90;;;;;;5072472;28;20028;-67
2021/08/17 09:23:57;;;;;;;2.80;1.33;;;16.20;99.90;;;;;;5072483;28;20365;-67
2021/08/17 09:26:26;;;;;;;2.35;1.10;;;16.20;99.90;;;;;;5072472;28;20024;-67
2021/08/17 09:29:00;;;;;;;2.90;1.02;;;16.20;99.90;;;;;;5071884;28;20388;-67
2021/08/17 09:31:38;;;;;;;2.40;1.10;;;16.10;99.90;;;;;;5072146;28;20028;-67
2021/08/17 09:34:07;;;;;;;4.28;1.10;;;16.10;99.90;;;;;;5072172;28;20507;-67
2021/08/17 09:36:43;;;;;;;1.08;0.90;;;16.00;99.90;;;;;;5071834;28;20115;-67
2021/08/17 09:39:10;;;;;;;2.20;1.20;;;16.00;99.90;;;;;;5072569;28;20028;-67
2021/08/17 09:41:37;;;;;;;4.28;1.48;;;16.00;99.90;;;;;;5061527;28;20031;-67
2021/08/17 09:44:04;;;;;;;1.27;1.00;;;16.00;99.90;;;;;;5053086;28;20029;-68
2021/08/17 09:46:31;;;;;;;1.48;1.00;;;16.00;99.90;;;;;;5056076;28;20057;-67
2021/08/17 09:49:15;;;;;;;12.10;1.92;;;16.00;99.90;;;;;;5051777;28;20036;-69
2021/08/17 09:51:41;;;;;;;2.35;1.05;;;16.10;99.90;;;;;;5050486;28;20060;-69
2021/08/17 09:54:15;;;;;;;9.90;1.67;;;16.30;99.90;;;;;;5051778;28;20079;-69
2021/08/17 09:56:41;;;;;;;1.58;1.00;;;16.40;99.90;;;;;;5051604;28;20128;-68
2021/08/17 09:59:07;;;;;;;3.55;1.27;;;16.50;99.90;;;;;;5051814;28;20040;-68
2021/08/17 10:01:33;;;;;;;1.45;1.10;;;16.40;99.90;;;;;;5052107;28;20021;-68
2021/08/17 10:03:59;;;;;;;3.33;1.60;;;16.40;99.90;;;;;;5052050;28;20055;-68
2021/08/17 10:06:26;;;;;;;6.15;1.27;;;16.30;99.90;;;;;;5051889;28;20119;-68
2021/08/17 10:08:54;;;;;;;10.13;1.92;;;16.30;99.90;;;;;;5050346;28;20044;-68
2021/08/17 10:11:20;;;;;;;2.65;1.30;;;16.30;99.90;;;;;;5051796;28;20074;-68
2021/08/17 10:13:46;;;;;;;10.35;2.13;;;16.30;99.90;;;;;;5051549;28;20423;-68
2021/08/17 10:16:17;;;;;;;7.55;1.88;;;16.30;99.90;;;;;;5054480;28;20485;-68
2021/08/17 10:18:43;;;;;;;;;;;16.30;99.90;;;;;;5056173;28;20060;-68
2021/08/17 10:21:10;;;;;;;12.60;1.42;;;16.20;99.90;;;;;;5055787;28;19905;-68
2021/08/17 10:23:41;;;;;;;2.72;1.50;;;16.10;99.90;;;;;;5055810;28;20369;-68
2021/08/17 10:26:07;;;;;;;1.33;0.77;;;16.10;99.90;;;;;;5055782;28;20029;-68
2021/08/17 10:28:34;;;;;;;4.65;1.65;;;16.20;99.90;;;;;;5055581;28;20040;-68
2021/08/17 10:31:12;;;;;;;6.63;1.40;;;16.30;99.90;;;;;;5056014;28;20384;-68
2021/08/17 10:33:40;;;;;;;14.40;1.58;;;16.30;99.90;;;;;;5055432;28;20017;-68
2021/08/17 10:36:27;;;;;;;4.90;1.52;;;16.10;99.90;;;;;;5055788;28;20036;-68
2021/08/17 10:38:53;;;;;;;2.97;1.83;;;16.00;99.90;;;;;;5055316;28;20035;-68
2021/08/17 10:41:29;;;;;;;5.72;1.60;;;16.00;99.90;;;;;;5055641;28;20025;-68
2021/08/17 10:43:55;;;;;;;3.33;1.17;;;16.10;99.90;;;;;;5055378;28;20083;-68
2021/08/17 10:46:38;;;;;;;1.58;1.30;;;16.10;99.90;;;;;;5055270;28;20120;-68
2021/08/17 10:49:04;;;;;;;6.45;1.80;;;16.00;99.90;;;;;;5055189;28;20115;-68
2021/08/17 10:51:49;;;;;;;2.42;1.23;;;16.00;99.90;;;;;;5055024;28;20025;-68
2021/08/17 10:54:16;;;;;;;5.15;1.48;;;16.00;99.90;;;;;;5055086;28;20512;-68
2021/08/17 10:56:42;;;;;;;3.88;1.30;;;16.10;99.90;;;;;;5054601;28;20033;-68
2021/08/17 10:59:08;;;;;;;6.03;1.27;;;16.10;99.90;;;;;;5055133;28;20036;-68
2021/08/17 11:01:48;;;;;;;5.00;1.60;;;16.20;99.90;;;;;;5055136;28;20029;-68
2021/08/17 11:04:15;;;;;;;;;;;16.20;99.90;;;;;;5055497;28;20553;-68
2021/08/17 11:06:57;;;;;;;14.38;2.90;;;16.00;99.90;;;;;;5055015;28;20327;-67
2021/08/17 11:09:30;;;;;;;23.48;2.05;;;16.00;99.90;;;;;;5055215;28;20032;-67
2021/08/17 11:12:04;;;;;;;5.78;2.35;;;15.90;99.90;;;;;;5054982;28;20036;-67
2021/08/17 11:14:33;;;;;;;5.18;1.95;;;15.80;99.90;;;;;;5054892;28;20524;-67
2021/08/17 11:17:18;;;;;;;3.20;1.30;;;15.90;99.90;;;;;;5062657;28;20036;-66
2021/08/17 11:19:47;;;;;;;10.60;1.70;;;15.80;99.90;;;;;;5063515;28;20091;-66
2021/08/17 11:22:21;;;;;;;5.88;1.98;;;15.80;99.90;;;;;;5059900;28;20029;-67
2021/08/17 11:25:08;;;;;;;4.22;1.25;;;15.80;99.90;;;;;;5054458;28;20017;-67
2021/08/17 11:27:39;;;;;;;1.83;1.30;;;16.00;99.90;;;;;;5063669;28;20029;-67
2021/08/17 11:30:08;;;;;;;6.25;2.15;;;16.00;99.90;;;;;;5074595;28;20460;-70
2021/08/17 11:32:36;;;;;;;2.70;1.40;;;16.00;99.90;;;;;;5071471;28;20028;-66
2021/08/17 11:35:17;;;;;;;3.88;1.65;;;16.00;99.90;;;;;;5054711;28;20033;-66
2021/08/17 11:37:48;;;;;;;9.52;2.00;;;16.00;99.90;;;;;;5054178;28;20095;-66
2021/08/17 11:40:16;;;;;;;3.70;1.40;;;16.00;99.90;;;;;;5054365;28;20388;-66
2021/08/17 11:42:47;;;;;;;2.63;1.65;;;15.90;99.90;;;;;;5054275;28;20039;-66
2021/08/17 11:45:18;;;;;;;3.97;1.73;;;16.00;99.90;;;;;;5054454;28;20032;-67
2021/08/17 11:47:47;;;;;;;9.13;2.08;;;16.00;99.90;;;;;;5054223;28;20036;-66
2021/08/17 11:50:19;;;;;;;5.10;2.33;;;16.10;99.90;;;;;;5054324;28;20048;-66
2021/08/17 11:52:47;;;;;;;5.47;1.50;;;16.10;99.90;;;;;;5053527;28;20056;-66
2021/08/17 11:55:15;;;;;;;5.60;1.42;;;16.20;99.90;;;;;;5053977;28;20021;-67
2021/08/17 11:58:01;;;;;;;1.42;1.23;;;16.10;99.90;;;;;;5053631;28;20097;-66
2021/08/17 12:00:29;;;;;;;3.13;1.20;;;16.00;99.90;;;;;;5053984;28;20514;-68
2021/08/17 12:03:08;;;;;;;1.77;1.55;;;16.00;99.90;;;;;;5053637;28;20032;-68
2021/08/17 12:05:37;;;;;;;3.70;1.20;;;16.00;99.90;;;;;;5054189;28;20052;-68
2021/08/17 12:08:04;;;;;;;50.15;4.20;;;16.00;99.90;;;;;;5053411;28;20072;-67
2021/08/17 12:10:36;;;;;;;3.03;1.35;;;16.20;99.90;;;;;;5054073;28;20032;-66
2021/08/17 12:13:05;;;;;;;2.45;1.42;;;16.30;99.90;;;;;;5053751;28;20021;-67
2021/08/17 12:15:37;;;;;;;4.72;1.40;;;16.20;99.90;;;;;;5053775;28;20074;-68
2021/08/17 12:18:09;;;;;;;2.97;1.60;;;16.20;99.90;;;;;;5054264;28;20037;-67
2021/08/17 12:20:56;;;;;;;7.28;1.50;;;16.20;99.90;;;;;;5053487;28;20025;-67
2021/08/17 12:23:31;;;;;;;6.95;1.30;;;16.20;99.90;;;;;;5053247;28;20052;-67
2021/08/17 12:26:12;;;;;;;2.38;1.48;;;16.30;99.90;;;;;;5053326;28;20106;-67
2021/08/17 12:28:38;;;;;;;2.17;1.33;;;16.20;99.90;;;;;;5053331;28;20029;-67
2021/08/17 12:31:13;;;;;;;4.32;1.70;;;16.10;99.90;;;;;;5053455;28;20171;-68
2021/08/17 12:34:00;;;;;;;3.75;1.70;;;16.00;99.90;;;;;;5053025;28;20033;-67
2021/08/17 12:36:41;;;;;;;2.13;1.58;;;16.00;99.90;;;;;;5052892;28;20112;-67
2021/08/17 12:39:07;;;;;;;3.80;1.77;;;16.10;99.90;;;;;;5052989;28;20111;-67
2021/08/17 12:41:37;;;;;;;2.22;1.40;;;16.10;99.90;;;;;;5053055;28;20021;-67
2021/08/17 12:44:25;;;;;;;1.50;1.40;;;16.20;99.90;;;;;;5053102;28;20112;-67
2021/08/17 12:47:14;;;;;;;2.97;1.80;;;16.10;99.90;;;;;;5060936;28;20028;-67
2021/08/17 12:49:48;;;;;;;3.50;1.80;;;16.00;99.90;;;;;;5061923;28;20021;-67
2021/08/17 12:52:20;;;;;;;4.20;1.67;;;15.90;99.90;;;;;;5059837;28;20037;-66
2021/08/17 12:54:46;;;;;;;6.28;1.90;;;15.90;99.90;;;;;;5061948;28;20025;-67
2021/08/17 12:57:18;;;;;;;3.40;1.40;;;15.90;99.90;;;;;;5063678;28;20098;-67
2021/08/17 12:59:43;;;;;;;2.05;1.45;;;15.90;99.90;;;;;;5072607;28;20472;-67
2021/08/17 13:02:09;;;;;;;4.60;1.77;;;15.90;99.90;;;;;;5072724;28;20028;-67
2021/08/17 13:04:35;;;;;;;11.95;1.92;;;15.90;99.90;;;;;;5072552;28;20017;-67
2021/08/17 13:07:02;;;;;;;5.93;2.05;;;16.00;99.90;;;;;;5072535;28;20111;-67
2021/08/17 13:09:28;;;;;;;6.18;1.50;;;16.10;99.90;;;;;;5072482;28;20029;-68
2021/08/17 13:11:54;;;;;;;3.75;1.40;;;16.10;99.90;;;;;;5072326;28;20073;-67
2021/08/17 13:14:19;;;;;;;3.42;1.75;;;16.10;99.90;;;;;;5072396;28;20123;-67
2021/08/17 13:16:45;;;;;;;9.07;2.08;;;16.10;99.90;;;;;;5072583;28;20155;-67
2021/08/17 13:19:11;;;;;;;4.18;2.05;;;16.20;99.90;;;;;;5072547;28;20127;-67